KPDX/PDX METAR and TAF weather

Enter ICAO airport designator
Station Type Date Time Source
KPDX METAR 2020/01/20 09:53 UTC NOAA

KPDX 200953Z 12010KT 10SM BKN130 OVC150 07/01 A3000 RMK AO2 SLP157 T00670011 $


Station Type Date Time Source
KPDX Decoded METAR 2020/01/20 09:53 UTC NOAA

PORTLAND INTERNATIONAL AIRPORT, OR, United States (KPDX) 45-35N 122-36W 7M
Jan 20, 2020 - 04:53 AM EST / 2020.01.20 0953 UTC
Wind: from the ESE (120 degrees) at 12 MPH (10 KT):0
Visibility: 10 mile(s):0
Sky conditions: overcast
Temperature: 44.1 F (6.7 C)
Dew Point: 34.0 F (1.1 C)
Relative Humidity: 67%
Pressure (altimeter): 30 in. Hg (1015 hPa)
ob: KPDX 200953Z 12010KT 10SM BKN130 OVC150 07/01 A3000 RMK AO2 SLP157 T00670011
cycle: 10

Station Type Date Time Source
KPDX TAF 2020/01/20 09:54 UTC NOAA

TAF
AMD KPDX 200851Z 2009/2106 13012KT P6SM OVC140
FM201300 12010KT P6SM SCT025 OVC100
FM202100 12009KT P6SM SCT035 OVC050

Example: see airport list